map of IFP home
IFP - Airport
Location
City:  Bullhead City, Arizona, United States
Name:Laughlin/Bullhead International Airport
ICAO:KIFP
IATA:IFP
FAA LID:IFP

Details
Type:Airport (Part 139 Class I)
Use:Public/Civil
Latitude:3509'17"N (35.154614)
Longitude:11433'34"W (-114.559331)
Datum:WGS 1984
Elevation:707 ft (215 m)
Variation:11.29E (WMM2015 magnetic declination)
-0.09 annual change
Runways:1
Longest:8500 × 150 ft (2591 × 45.5 m), paved

Time
Time Zone:UTC-7
Local Time:

Weather
METAR:KIFP 182151Z 22008KT 10SM SKC 36/M05 A2980
TAF:KIFP 181721Z 1818/1918 20010KT P6SM SKC
FM190300 16007KT P6SM SKC
FM191200 VRB05KT P6SM SKC

Related Locations
Nearby:
Farthest:RRG: 11362 mi / 18286 km
Plaine Corail [Sir Gatan Duval Airport (Plaine Corail Airport)], Rodrigues Island, MU

Find:

   beyond  
but within

Other Information
Maps:
Delays:
NOTAMs:
Links:
Sources:

  
  • flag of United States
  • flag of Arizona
  

Airport Diagram

Airport diagram for IFP

Airport diagram PDF

Sectional Chart

Flight Planning
at skyvector.com

Satellite Image

Google Maps Satellite view

 

Copyright © 2004-2018 Karl L. Swartz. All rights reserved.
The Great Circle Mapper name and logo are trademarks of the Great Circle Mapper.
All other trademarks mentioned herein belong to their respective owners.
Please see credits for attibutions and further copyright information.

  Follow gcmap on Facebook Follow gcmap on Twitter Follow gcmap on Google+ GCmap on LinkedIn

hCard Microformat

Geo Microformat